sensor_id;sensor_type;location;lat;lon;timestamp;P1;durP1;ratioP1;P2;durP2;ratioP2
21392;SDS011;10857;52.228;21.026;2022-09-23T00:01:19;20.10;;;14.43;;
21392;SDS011;10857;52.228;21.026;2022-09-23T00:03:47;22.17;;;15.03;;
21392;SDS011;10857;52.228;21.026;2022-09-23T00:06:22;20.93;;;14.90;;
21392;SDS011;10857;52.228;21.026;2022-09-23T00:08:50;18.60;;;12.50;;
21392;SDS011;10857;52.228;21.026;2022-09-23T00:11:21;20.23;;;13.20;;
21392;SDS011;10857;52.228;21.026;2022-09-23T00:13:51;19.00;;;13.50;;
21392;SDS011;10857;52.228;21.026;2022-09-23T00:16:22;20.23;;;13.57;;
21392;SDS011;10857;52.228;21.026;2022-09-23T00:18:51;20.80;;;14.27;;
21392;SDS011;10857;52.228;21.026;2022-09-23T00:21:18;21.53;;;15.23;;
21392;SDS011;10857;52.228;21.026;2022-09-23T00:23:49;22.37;;;15.43;;
21392;SDS011;10857;52.228;21.026;2022-09-23T00:26:18;22.30;;;16.30;;
21392;SDS011;10857;52.228;21.026;2022-09-23T00:28:46;22.87;;;15.60;;
21392;SDS011;10857;52.228;21.026;2022-09-23T00:31:19;21.17;;;15.70;;
21392;SDS011;10857;52.228;21.026;2022-09-23T00:33:55;24.50;;;17.53;;
21392;SDS011;10857;52.228;21.026;2022-09-23T00:36:23;25.87;;;18.67;;
21392;SDS011;10857;52.228;21.026;2022-09-23T00:38:50;32.33;;;19.87;;
21392;SDS011;10857;52.228;21.026;2022-09-23T00:41:18;23.33;;;17.60;;
21392;SDS011;10857;52.228;21.026;2022-09-23T00:43:48;23.67;;;17.33;;
21392;SDS011;10857;52.228;21.026;2022-09-23T00:46:27;28.30;;;17.70;;
21392;SDS011;10857;52.228;21.026;2022-09-23T00:51:38;23.43;;;15.40;;
21392;SDS011;10857;52.228;21.026;2022-09-23T00:54:09;23.47;;;16.00;;
21392;SDS011;10857;52.228;21.026;2022-09-23T00:56:37;25.57;;;16.93;;
21392;SDS011;10857;52.228;21.026;2022-09-23T00:59:05;21.57;;;15.83;;
21392;SDS011;10857;52.228;21.026;2022-09-23T01:04:23;20.43;;;14.13;;
21392;SDS011;10857;52.228;21.026;2022-09-23T01:06:53;23.33;;;15.17;;
21392;SDS011;10857;52.228;21.026;2022-09-23T01:09:20;21.83;;;15.60;;
21392;SDS011;10857;52.228;21.026;2022-09-23T01:11:51;24.10;;;16.47;;
21392;SDS011;10857;52.228;21.026;2022-09-23T01:14:42;23.60;;;17.77;;
21392;SDS011;10857;52.228;21.026;2022-09-23T01:20:32;26.73;;;18.20;;
21392;SDS011;10857;52.228;21.026;2022-09-23T01:30:04;22.40;;;17.60;;
21392;SDS011;10857;52.228;21.026;2022-09-23T01:39:09;24.87;;;18.27;;
21392;SDS011;10857;52.228;21.026;2022-09-23T01:44:27;26.10;;;17.43;;
21392;SDS011;10857;52.228;21.026;2022-09-23T01:47:21;23.67;;;16.70;;
21392;SDS011;10857;52.228;21.026;2022-09-23T01:50:04;26.03;;;17.43;;
21392;SDS011;10857;52.228;21.026;2022-09-23T01:52:55;23.77;;;16.40;;
21392;SDS011;10857;52.228;21.026;2022-09-23T01:55:27;20.33;;;14.23;;
21392;SDS011;10857;52.228;21.026;2022-09-23T01:58:03;20.80;;;13.73;;
21392;SDS011;10857;52.228;21.026;2022-09-23T02:00:48;17.97;;;13.20;;
21392;SDS011;10857;52.228;21.026;2022-09-23T02:03:48;20.90;;;14.07;;
21392;SDS011;10857;52.228;21.026;2022-09-23T02:06:22;25.67;;;17.37;;
21392;SDS011;10857;52.228;21.026;2022-09-23T02:09:08;28.40;;;18.93;;
21392;SDS011;10857;52.228;21.026;2022-09-23T02:11:42;24.97;;;16.63;;
21392;SDS011;10857;52.228;21.026;2022-09-23T02:14:18;25.67;;;16.97;;
21392;SDS011;10857;52.228;21.026;2022-09-23T02:16:51;28.53;;;19.10;;
21392;SDS011;10857;52.228;21.026;2022-09-23T02:21:56;30.57;;;19.47;;
21392;SDS011;10857;52.228;21.026;2022-09-23T02:24:29;25.67;;;17.97;;
21392;SDS011;10857;52.228;21.026;2022-09-23T02:32:53;24.77;;;16.90;;
21392;SDS011;10857;52.228;21.026;2022-09-23T02:38:09;22.90;;;15.77;;
21392;SDS011;10857;52.228;21.026;2022-09-23T02:41:09;30.47;;;18.47;;
21392;SDS011;10857;52.228;21.026;2022-09-23T02:43:52;26.93;;;18.40;;
21392;SDS011;10857;52.228;21.026;2022-09-23T02:46:23;25.00;;;16.57;;
21392;SDS011;10857;52.228;21.026;2022-09-23T02:48:57;24.20;;;15.73;;
21392;SDS011;10857;52.228;21.026;2022-09-23T02:51:31;23.53;;;15.43;;
21392;SDS011;10857;52.228;21.026;2022-09-23T02:54:03;21.63;;;14.23;;
21392;SDS011;10857;52.228;21.026;2022-09-23T02:56:32;27.00;;;17.63;;
21392;SDS011;10857;52.228;21.026;2022-09-23T02:59:00;31.30;;;19.10;;
21392;SDS011;10857;52.228;21.026;2022-09-23T03:04:13;29.87;;;20.27;;
21392;SDS011;10857;52.228;21.026;2022-09-23T03:07:03;30.40;;;19.07;;
21392;SDS011;10857;52.228;21.026;2022-09-23T03:09:53;30.17;;;18.80;;
21392;SDS011;10857;52.228;21.026;2022-09-23T03:12:37;28.73;;;19.67;;
21392;SDS011;10857;52.228;21.026;2022-09-23T03:23:10;23.60;;;15.03;;
21392;SDS011;10857;52.228;21.026;2022-09-23T03:25:41;23.80;;;15.07;;
21392;SDS011;10857;52.228;21.026;2022-09-23T03:28:11;21.23;;;13.87;;
21392;SDS011;10857;52.228;21.026;2022-09-23T03:30:40;19.97;;;12.00;;
21392;SDS011;10857;52.228;21.026;2022-09-23T03:33:09;17.70;;;11.57;;
21392;SDS011;10857;52.228;21.026;2022-09-23T03:35:40;16.13;;;10.60;;
21392;SDS011;10857;52.228;21.026;2022-09-23T03:38:34;17.30;;;10.70;;
21392;SDS011;10857;52.228;21.026;2022-09-23T03:41:03;17.53;;;10.90;;
21392;SDS011;10857;52.228;21.026;2022-09-23T03:43:34;14.20;;;10.00;;
21392;SDS011;10857;52.228;21.026;2022-09-23T03:46:06;18.20;;;11.13;;
21392;SDS011;10857;52.228;21.026;2022-09-23T03:48:34;17.03;;;11.60;;
21392;SDS011;10857;52.228;21.026;2022-09-23T03:51:03;19.33;;;12.80;;
21392;SDS011;10857;52.228;21.026;2022-09-23T03:53:44;19.27;;;12.20;;
21392;SDS011;10857;52.228;21.026;2022-09-23T03:56:11;18.27;;;12.57;;
21392;SDS011;10857;52.228;21.026;2022-09-23T03:58:40;18.43;;;12.30;;
21392;SDS011;10857;52.228;21.026;2022-09-23T04:01:07;20.50;;;12.80;;
21392;SDS011;10857;52.228;21.026;2022-09-23T04:03:34;23.60;;;14.60;;
21392;SDS011;10857;52.228;21.026;2022-09-23T04:06:01;20.47;;;14.00;;
21392;SDS011;10857;52.228;21.026;2022-09-23T04:08:27;22.17;;;15.00;;
21392;SDS011;10857;52.228;21.026;2022-09-23T04:10:58;21.33;;;15.37;;
21392;SDS011;10857;52.228;21.026;2022-09-23T04:13:30;21.53;;;14.57;;
21392;SDS011;10857;52.228;21.026;2022-09-23T04:15:57;23.93;;;14.23;;
21392;SDS011;10857;52.228;21.026;2022-09-23T04:18:24;25.97;;;14.33;;
21392;SDS011;10857;52.228;21.026;2022-09-23T04:20:55;20.60;;;13.97;;
21392;SDS011;10857;52.228;21.026;2022-09-23T04:23:23;27.33;;;16.77;;
21392;SDS011;10857;52.228;21.026;2022-09-23T04:25:53;23.87;;;16.53;;
21392;SDS011;10857;52.228;21.026;2022-09-23T04:28:20;19.70;;;14.37;;
21392;SDS011;10857;52.228;21.026;2022-09-23T04:30:47;20.10;;;13.43;;
21392;SDS011;10857;52.228;21.026;2022-09-23T04:33:15;16.57;;;12.60;;
21392;SDS011;10857;52.228;21.026;2022-09-23T04:35:42;19.00;;;11.57;;
21392;SDS011;10857;52.228;21.026;2022-09-23T04:38:09;16.93;;;11.30;;
21392;SDS011;10857;52.228;21.026;2022-09-23T04:40:37;19.60;;;11.47;;
21392;SDS011;10857;52.228;21.026;2022-09-23T04:43:04;17.90;;;12.63;;
21392;SDS011;10857;52.228;21.026;2022-09-23T04:45:37;19.30;;;13.30;;
21392;SDS011;10857;52.228;21.026;2022-09-23T04:48:04;22.97;;;14.03;;
21392;SDS011;10857;52.228;21.026;2022-09-23T04:50:31;22.63;;;13.80;;
21392;SDS011;10857;52.228;21.026;2022-09-23T04:53:00;20.93;;;14.20;;
21392;SDS011;10857;52.228;21.026;2022-09-23T04:55:33;19.13;;;13.37;;
21392;SDS011;10857;52.228;21.026;2022-09-23T04:57:59;23.50;;;12.03;;
21392;SDS011;10857;52.228;21.026;2022-09-23T05:00:26;16.93;;;11.63;;
21392;SDS011;10857;52.228;21.026;2022-09-23T05:02:54;16.10;;;10.40;;
21392;SDS011;10857;52.228;21.026;2022-09-23T05:05:21;17.97;;;12.07;;
21392;SDS011;10857;52.228;21.026;2022-09-23T05:07:49;20.63;;;12.13;;
21392;SDS011;10857;52.228;21.026;2022-09-23T05:10:17;17.87;;;11.60;;
21392;SDS011;10857;52.228;21.026;2022-09-23T05:12:45;15.27;;;10.23;;
21392;SDS011;10857;52.228;21.026;2022-09-23T05:15:11;17.10;;;10.70;;
21392;SDS011;10857;52.228;21.026;2022-09-23T05:17:41;15.60;;;10.93;;
21392;SDS011;10857;52.228;21.026;2022-09-23T05:20:09;19.10;;;11.00;;
21392;SDS011;10857;52.228;21.026;2022-09-23T05:22:36;15.57;;;9.20;;
21392;SDS011;10857;52.228;21.026;2022-09-23T05:25:03;21.43;;;9.27;;
21392;SDS011;10857;52.228;21.026;2022-09-23T05:27:30;16.77;;;9.50;;
21392;SDS011;10857;52.228;21.026;2022-09-23T05:29:57;16.63;;;8.77;;
21392;SDS011;10857;52.228;21.026;2022-09-23T05:32:24;16.87;;;8.93;;
21392;SDS011;10857;52.228;21.026;2022-09-23T05:34:51;15.80;;;9.00;;
21392;SDS011;10857;52.228;21.026;2022-09-23T05:37:20;16.67;;;9.80;;
21392;SDS011;10857;52.228;21.026;2022-09-23T05:39:48;16.87;;;9.03;;
21392;SDS011;10857;52.228;21.026;2022-09-23T05:42:15;16.67;;;8.93;;
21392;SDS011;10857;52.228;21.026;2022-09-23T05:44:43;19.80;;;9.63;;
21392;SDS011;10857;52.228;21.026;2022-09-23T05:47:12;16.27;;;9.33;;
21392;SDS011;10857;52.228;21.026;2022-09-23T05:49:39;19.17;;;10.00;;
21392;SDS011;10857;52.228;21.026;2022-09-23T05:52:24;18.33;;;9.30;;
21392;SDS011;10857;52.228;21.026;2022-09-23T05:54:51;23.50;;;10.17;;
21392;SDS011;10857;52.228;21.026;2022-09-23T05:57:19;20.70;;;9.20;;
21392;SDS011;10857;52.228;21.026;2022-09-23T05:59:47;20.73;;;9.40;;
21392;SDS011;10857;52.228;21.026;2022-09-23T06:02:14;16.40;;;9.60;;
21392;SDS011;10857;52.228;21.026;2022-09-23T06:04:41;18.17;;;10.33;;
21392;SDS011;10857;52.228;21.026;2022-09-23T06:07:09;16.47;;;10.07;;
21392;SDS011;10857;52.228;21.026;2022-09-23T06:09:36;19.57;;;9.80;;
21392;SDS011;10857;52.228;21.026;2022-09-23T06:12:03;16.37;;;10.10;;
21392;SDS011;10857;52.228;21.026;2022-09-23T06:14:31;16.07;;;9.00;;
21392;SDS011;10857;52.228;21.026;2022-09-23T06:20:35;15.00;;;9.53;;
21392;SDS011;10857;52.228;21.026;2022-09-23T06:23:05;16.77;;;9.33;;
21392;SDS011;10857;52.228;21.026;2022-09-23T06:25:36;15.87;;;10.40;;
21392;SDS011;10857;52.228;21.026;2022-09-23T06:28:06;16.17;;;9.80;;
21392;SDS011;10857;52.228;21.026;2022-09-23T06:30:37;14.90;;;9.40;;
21392;SDS011;10857;52.228;21.026;2022-09-23T06:33:05;14.80;;;9.20;;
21392;SDS011;10857;52.228;21.026;2022-09-23T06:35:32;18.63;;;9.87;;
21392;SDS011;10857;52.228;21.026;2022-09-23T06:38:02;18.20;;;9.70;;
21392;SDS011;10857;52.228;21.026;2022-09-23T06:40:30;18.90;;;10.43;;
21392;SDS011;10857;52.228;21.026;2022-09-23T06:42:58;19.20;;;10.13;;
21392;SDS011;10857;52.228;21.026;2022-09-23T06:45:26;18.23;;;10.43;;
21392;SDS011;10857;52.228;21.026;2022-09-23T06:47:54;17.90;;;9.20;;
21392;SDS011;10857;52.228;21.026;2022-09-23T06:50:22;16.87;;;9.63;;
21392;SDS011;10857;52.228;21.026;2022-09-23T06:52:51;17.37;;;9.47;;
21392;SDS011;10857;52.228;21.026;2022-09-23T06:55:22;14.77;;;9.20;;
21392;SDS011;10857;52.228;21.026;2022-09-23T06:57:50;14.30;;;7.80;;
21392;SDS011;10857;52.228;21.026;2022-09-23T07:00:16;15.53;;;7.80;;
21392;SDS011;10857;52.228;21.026;2022-09-23T07:02:45;25.93;;;7.90;;
21392;SDS011;10857;52.228;21.026;2022-09-23T07:05:12;13.43;;;7.40;;
21392;SDS011;10857;52.228;21.026;2022-09-23T07:07:44;12.37;;;6.83;;
21392;SDS011;10857;52.228;21.026;2022-09-23T07:10:11;14.10;;;7.20;;
21392;SDS011;10857;52.228;21.026;2022-09-23T07:12:38;15.33;;;7.23;;
21392;SDS011;10857;52.228;21.026;2022-09-23T07:15:05;13.13;;;7.63;;
21392;SDS011;10857;52.228;21.026;2022-09-23T07:17:33;13.23;;;8.07;;
21392;SDS011;10857;52.228;21.026;2022-09-23T07:20:00;13.80;;;7.83;;
21392;SDS011;10857;52.228;21.026;2022-09-23T07:22:27;15.03;;;7.77;;
21392;SDS011;10857;52.228;21.026;2022-09-23T07:24:54;11.60;;;7.20;;
21392;SDS011;10857;52.228;21.026;2022-09-23T07:27:22;13.53;;;7.00;;
21392;SDS011;10857;52.228;21.026;2022-09-23T07:29:49;14.67;;;6.50;;
21392;SDS011;10857;52.228;21.026;2022-09-23T07:32:18;10.77;;;6.03;;
21392;SDS011;10857;52.228;21.026;2022-09-23T07:34:46;9.90;;;6.00;;
21392;SDS011;10857;52.228;21.026;2022-09-23T07:37:16;7.57;;;5.80;;
21392;SDS011;10857;52.228;21.026;2022-09-23T07:39:43;11.23;;;6.53;;
21392;SDS011;10857;52.228;21.026;2022-09-23T07:42:10;9.00;;;5.07;;
21392;SDS011;10857;52.228;21.026;2022-09-23T07:44:38;7.43;;;5.50;;
21392;SDS011;10857;52.228;21.026;2022-09-23T07:47:08;9.33;;;5.10;;
21392;SDS011;10857;52.228;21.026;2022-09-23T07:49:35;8.75;;;5.53;;
21392;SDS011;10857;52.228;21.026;2022-09-23T07:52:02;8.40;;;5.23;;
21392;SDS011;10857;52.228;21.026;2022-09-23T07:54:30;9.73;;;5.33;;
21392;SDS011;10857;52.228;21.026;2022-09-23T07:56:57;7.93;;;5.20;;
21392;SDS011;10857;52.228;21.026;2022-09-23T07:59:25;7.17;;;4.87;;
21392;SDS011;10857;52.228;21.026;2022-09-23T08:01:52;5.57;;;4.40;;
21392;SDS011;10857;52.228;21.026;2022-09-23T08:04:24;11.07;;;4.97;;
21392;SDS011;10857;52.228;21.026;2022-09-23T08:06:55;12.93;;;5.50;;
21392;SDS011;10857;52.228;21.026;2022-09-23T08:09:27;7.10;;;4.17;;
21392;SDS011;10857;52.228;21.026;2022-09-23T08:12:00;6.83;;;4.10;;
21392;SDS011;10857;52.228;21.026;2022-09-23T08:14:27;7.33;;;3.67;;
21392;SDS011;10857;52.228;21.026;2022-09-23T08:16:54;6.17;;;4.23;;
21392;SDS011;10857;52.228;21.026;2022-09-23T08:19:22;7.57;;;4.27;;
21392;SDS011;10857;52.228;21.026;2022-09-23T08:21:49;5.43;;;3.50;;
21392;SDS011;10857;52.228;21.026;2022-09-23T08:24:18;9.13;;;5.50;;
21392;SDS011;10857;52.228;21.026;2022-09-23T08:26:46;6.33;;;4.70;;
21392;SDS011;10857;52.228;21.026;2022-09-23T08:29:15;9.33;;;6.07;;
21392;SDS011;10857;52.228;21.026;2022-09-23T08:31:43;5.63;;;3.93;;
21392;SDS011;10857;52.228;21.026;2022-09-23T08:34:10;7.97;;;5.50;;
21392;SDS011;10857;52.228;21.026;2022-09-23T08:36:37;9.63;;;5.60;;
21392;SDS011;10857;52.228;21.026;2022-09-23T08:39:05;7.47;;;4.70;;
21392;SDS011;10857;52.228;21.026;2022-09-23T08:44:16;7.67;;;5.30;;
21392;SDS011;10857;52.228;21.026;2022-09-23T08:46:50;11.73;;;6.40;;
21392;SDS011;10857;52.228;21.026;2022-09-23T08:49:34;6.83;;;5.20;;
21392;SDS011;10857;52.228;21.026;2022-09-23T08:52:08;9.20;;;6.43;;
21392;SDS011;10857;52.228;21.026;2022-09-23T08:54:46;8.63;;;5.57;;
21392;SDS011;10857;52.228;21.026;2022-09-23T08:57:25;8.87;;;6.03;;
21392;SDS011;10857;52.228;21.026;2022-09-23T09:00:04;10.07;;;6.47;;
21392;SDS011;10857;52.228;21.026;2022-09-23T09:02:32;8.17;;;4.00;;
21392;SDS011;10857;52.228;21.026;2022-09-23T09:05:02;7.03;;;5.47;;
21392;SDS011;10857;52.228;21.026;2022-09-23T09:07:34;9.70;;;5.13;;
21392;SDS011;10857;52.228;21.026;2022-09-23T09:10:05;6.80;;;4.80;;
21392;SDS011;10857;52.228;21.026;2022-09-23T09:12:42;8.73;;;5.07;;
21392;SDS011;10857;52.228;21.026;2022-09-23T09:15:18;8.10;;;5.00;;
21392;SDS011;10857;52.228;21.026;2022-09-23T09:17:55;7.97;;;4.90;;
21392;SDS011;10857;52.228;21.026;2022-09-23T09:23:36;7.73;;;4.23;;
21392;SDS011;10857;52.228;21.026;2022-09-23T09:26:14;5.97;;;4.05;;
21392;SDS011;10857;52.228;21.026;2022-09-23T09:28:51;5.47;;;3.50;;
21392;SDS011;10857;52.228;21.026;2022-09-23T09:31:46;5.82;;;3.20;;
21392;SDS011;10857;52.228;21.026;2022-09-23T09:39:40;6.25;;;2.65;;
21392;SDS011;10857;52.228;21.026;2022-09-23T09:42:08;5.00;;;3.00;;
21392;SDS011;10857;52.228;21.026;2022-09-23T09:44:46;3.07;;;2.10;;
21392;SDS011;10857;52.228;21.026;2022-09-23T09:50:15;3.30;;;1.37;;
21392;SDS011;10857;52.228;21.026;2022-09-23T09:52:47;5.00;;;1.80;;
21392;SDS011;10857;52.228;21.026;2022-09-23T09:55:25;2.15;;;1.75;;
21392;SDS011;10857;52.228;21.026;2022-09-23T09:57:54;2.60;;;1.75;;
21392;SDS011;10857;52.228;21.026;2022-09-23T10:00:35;1.50;;;1.40;;
21392;SDS011;10857;52.228;21.026;2022-09-23T10:08:22;3.85;;;1.88;;
21392;SDS011;10857;52.228;21.026;2022-09-23T10:11:04;2.60;;;1.52;;
21392;SDS011;10857;52.228;21.026;2022-09-23T10:13:40;1.52;;;1.40;;
21392;SDS011;10857;52.228;21.026;2022-09-23T10:16:27;3.58;;;1.42;;
21392;SDS011;10857;52.228;21.026;2022-09-23T10:19:03;1.40;;;1.30;;
21392;SDS011;10857;52.228;21.026;2022-09-23T10:21:39;1.30;;;1.20;;
21392;SDS011;10857;52.228;21.026;2022-09-23T10:24:07;5.10;;;1.60;;
21392;SDS011;10857;52.228;21.026;2022-09-23T10:26:56;7.53;;;1.30;;
21392;SDS011;10857;52.228;21.026;2022-09-23T10:29:28;3.28;;;1.40;;
21392;SDS011;10857;52.228;21.026;2022-09-23T10:32:13;3.38;;;1.50;;
21392;SDS011;10857;52.228;21.026;2022-09-23T10:35:09;5.15;;;1.70;;
21392;SDS011;10857;52.228;21.026;2022-09-23T10:37:39;2.13;;;1.70;;
21392;SDS011;10857;52.228;21.026;2022-09-23T10:43:05;2.85;;;1.50;;
21392;SDS011;10857;52.228;21.026;2022-09-23T10:46:18;2.70;;;1.90;;
21392;SDS011;10857;52.228;21.026;2022-09-23T10:57:45;2.70;;;1.73;;
21392;SDS011;10857;52.228;21.026;2022-09-23T11:00:40;2.75;;;1.52;;
21392;SDS011;10857;52.228;21.026;2022-09-23T11:03:48;2.25;;;1.65;;
21392;SDS011;10857;52.228;21.026;2022-09-23T11:06:50;2.72;;;1.90;;
21392;SDS011;10857;52.228;21.026;2022-09-23T11:09:47;5.07;;;2.03;;
21392;SDS011;10857;52.228;21.026;2022-09-23T11:20:42;10.60;;;2.10;;
21392;SDS011;10857;52.228;21.026;2022-09-23T11:37:05;1.90;;;1.60;;
21392;SDS011;10857;52.228;21.026;2022-09-23T11:39:37;3.33;;;1.65;;
21392;SDS011;10857;52.228;21.026;2022-09-23T11:42:18;2.35;;;1.80;;
21392;SDS011;10857;52.228;21.026;2022-09-23T11:47:35;3.30;;;2.00;;
21392;SDS011;10857;52.228;21.026;2022-09-23T11:52:52;1.85;;;1.63;;
21392;SDS011;10857;52.228;21.026;2022-09-23T11:55:29;2.38;;;1.63;;
21392;SDS011;10857;52.228;21.026;2022-09-23T11:58:23;3.60;;;1.58;;
21392;SDS011;10857;52.228;21.026;2022-09-23T12:01:00;2.55;;;1.40;;
21392;SDS011;10857;52.228;21.026;2022-09-23T12:03:54;4.30;;;1.40;;
21392;SDS011;10857;52.228;21.026;2022-09-23T12:06:37;2.30;;;1.60;;
21392;SDS011;10857;52.228;21.026;2022-09-23T12:09:14;2.45;;;1.55;;
21392;SDS011;10857;52.228;21.026;2022-09-23T12:12:28;2.72;;;1.30;;
21392;SDS011;10857;52.228;21.026;2022-09-23T12:14:59;1.40;;;1.30;;
21392;SDS011;10857;52.228;21.026;2022-09-23T12:23:21;2.45;;;1.48;;
21392;SDS011;10857;52.228;21.026;2022-09-23T12:26:14;3.03;;;1.50;;
21392;SDS011;10857;52.228;21.026;2022-09-23T12:28:44;3.83;;;1.50;;
21392;SDS011;10857;52.228;21.026;2022-09-23T12:31:16;3.35;;;1.67;;
21392;SDS011;10857;52.228;21.026;2022-09-23T12:33:56;3.55;;;1.90;;
21392;SDS011;10857;52.228;21.026;2022-09-23T12:36:27;2.88;;;1.67;;
21392;SDS011;10857;52.228;21.026;2022-09-23T12:39:04;2.47;;;1.80;;
21392;SDS011;10857;52.228;21.026;2022-09-23T12:41:40;4.60;;;1.58;;
21392;SDS011;10857;52.228;21.026;2022-09-23T12:49:52;3.45;;;1.42;;
21392;SDS011;10857;52.228;21.026;2022-09-23T12:52:24;3.13;;;1.33;;
21392;SDS011;10857;52.228;21.026;2022-09-23T12:54:56;2.42;;;1.20;;
21392;SDS011;10857;52.228;21.026;2022-09-23T12:57:43;2.85;;;1.50;;
21392;SDS011;10857;52.228;21.026;2022-09-23T13:00:44;4.25;;;1.58;;
21392;SDS011;10857;52.228;21.026;2022-09-23T13:03:03;3.95;;;1.80;;
21392;SDS011;10857;52.228;21.026;2022-09-23T13:06:08;4.03;;;1.48;;
21392;SDS011;10857;52.228;21.026;2022-09-23T13:08:55;2.85;;;1.50;;
21392;SDS011;10857;52.228;21.026;2022-09-23T13:11:26;4.07;;;1.50;;
21392;SDS011;10857;52.228;21.026;2022-09-23T13:13:55;2.55;;;1.50;;
21392;SDS011;10857;52.228;21.026;2022-09-23T13:16:30;6.00;;;1.35;;
21392;SDS011;10857;52.228;21.026;2022-09-23T13:19:07;2.33;;;1.45;;
21392;SDS011;10857;52.228;21.026;2022-09-23T13:27:16;2.03;;;1.42;;
21392;SDS011;10857;52.228;21.026;2022-09-23T13:29:49;1.42;;;1.23;;
21392;SDS011;10857;52.228;21.026;2022-09-23T13:32:30;2.95;;;1.30;;
21392;SDS011;10857;52.228;21.026;2022-09-23T13:35:13;1.85;;;1.40;;
21392;SDS011;10857;52.228;21.026;2022-09-23T13:37:51;2.17;;;1.60;;
21392;SDS011;10857;52.228;21.026;2022-09-23T13:40:20;2.67;;;1.50;;
21392;SDS011;10857;52.228;21.026;2022-09-23T13:42:52;4.90;;;1.90;;
21392;SDS011;10857;52.228;21.026;2022-09-23T13:45:25;3.13;;;1.40;;
21392;SDS011;10857;52.228;21.026;2022-09-23T13:47:54;6.13;;;1.70;;
21392;SDS011;10857;52.228;21.026;2022-09-23T13:50:26;2.47;;;1.70;;
21392;SDS011;10857;52.228;21.026;2022-09-23T13:53:00;2.17;;;1.55;;
21392;SDS011;10857;52.228;21.026;2022-09-23T13:55:33;5.72;;;1.48;;
21392;SDS011;10857;52.228;21.026;2022-09-23T13:58:16;3.65;;;1.70;;
21392;SDS011;10857;52.228;21.026;2022-09-23T14:00:45;2.03;;;1.45;;
21392;SDS011;10857;52.228;21.026;2022-09-23T14:03:16;4.93;;;1.70;;
21392;SDS011;10857;52.228;21.026;2022-09-23T14:05:51;2.63;;;1.45;;
21392;SDS011;10857;52.228;21.026;2022-09-23T14:08:19;3.08;;;1.70;;
21392;SDS011;10857;52.228;21.026;2022-09-23T14:10:47;3.30;;;1.40;;
21392;SDS011;10857;52.228;21.026;2022-09-23T14:13:21;2.20;;;1.60;;
21392;SDS011;10857;52.228;21.026;2022-09-23T14:15:52;4.18;;;1.85;;
21392;SDS011;10857;52.228;21.026;2022-09-23T14:18:24;3.38;;;1.50;;
21392;SDS011;10857;52.228;21.026;2022-09-23T14:20:54;4.93;;;1.58;;
21392;SDS011;10857;52.228;21.026;2022-09-23T14:23:21;2.50;;;1.63;;
21392;SDS011;10857;52.228;21.026;2022-09-23T14:25:48;3.17;;;1.80;;
21392;SDS011;10857;52.228;21.026;2022-09-23T14:28:20;3.85;;;1.58;;
21392;SDS011;10857;52.228;21.026;2022-09-23T14:30:49;3.33;;;1.73;;
21392;SDS011;10857;52.228;21.026;2022-09-23T14:33:18;4.60;;;2.08;;
21392;SDS011;10857;52.228;21.026;2022-09-23T14:36:04;4.93;;;1.80;;
21392;SDS011;10857;52.228;21.026;2022-09-23T14:38:59;4.20;;;1.73;;
21392;SDS011;10857;52.228;21.026;2022-09-23T14:41:33;3.20;;;1.70;;
21392;SDS011;10857;52.228;21.026;2022-09-23T14:44:04;2.20;;;1.65;;
21392;SDS011;10857;52.228;21.026;2022-09-23T14:46:33;2.45;;;2.00;;
21392;SDS011;10857;52.228;21.026;2022-09-23T14:51:50;4.28;;;1.80;;
21392;SDS011;10857;52.228;21.026;2022-09-23T14:54:22;3.45;;;1.70;;
21392;SDS011;10857;52.228;21.026;2022-09-23T14:56:55;3.25;;;1.90;;
21392;SDS011;10857;52.228;21.026;2022-09-23T14:59:26;2.38;;;1.98;;
21392;SDS011;10857;52.228;21.026;2022-09-23T15:01:58;2.15;;;1.70;;
21392;SDS011;10857;52.228;21.026;2022-09-23T15:04:26;3.88;;;1.95;;
21392;SDS011;10857;52.228;21.026;2022-09-23T15:06:58;2.30;;;1.85;;
21392;SDS011;10857;52.228;21.026;2022-09-23T15:09:35;3.47;;;1.85;;
21392;SDS011;10857;52.228;21.026;2022-09-23T15:12:05;2.50;;;1.77;;
21392;SDS011;10857;52.228;21.026;2022-09-23T15:14:53;4.30;;;2.20;;
21392;SDS011;10857;52.228;21.026;2022-09-23T15:19:52;3.88;;;2.10;;
21392;SDS011;10857;52.228;21.026;2022-09-23T15:22:23;3.13;;;2.05;;
21392;SDS011;10857;52.228;21.026;2022-09-23T15:24:51;4.82;;;2.10;;
21392;SDS011;10857;52.228;21.026;2022-09-23T15:30:08;4.38;;;1.90;;
21392;SDS011;10857;52.228;21.026;2022-09-23T15:32:41;3.05;;;2.13;;
21392;SDS011;10857;52.228;21.026;2022-09-23T15:35:16;4.45;;;2.20;;
21392;SDS011;10857;52.228;21.026;2022-09-23T15:37:45;3.15;;;2.00;;
21392;SDS011;10857;52.228;21.026;2022-09-23T15:40:17;2.65;;;2.00;;
21392;SDS011;10857;52.228;21.026;2022-09-23T15:42:45;3.88;;;2.00;;
21392;SDS011;10857;52.228;21.026;2022-09-23T15:45:25;5.63;;;1.92;;
21392;SDS011;10857;52.228;21.026;2022-09-23T15:47:54;3.03;;;1.75;;
21392;SDS011;10857;52.228;21.026;2022-09-23T15:50:27;3.20;;;2.10;;
21392;SDS011;10857;52.228;21.026;2022-09-23T15:52:54;2.97;;;2.03;;
21392;SDS011;10857;52.228;21.026;2022-09-23T15:55:21;4.28;;;2.38;;
21392;SDS011;10857;52.228;21.026;2022-09-23T15:57:48;2.63;;;1.85;;
21392;SDS011;10857;52.228;21.026;2022-09-23T16:00:16;3.50;;;1.92;;
21392;SDS011;10857;52.228;21.026;2022-09-23T16:02:43;2.83;;;2.00;;
21392;SDS011;10857;52.228;21.026;2022-09-23T16:05:17;3.30;;;2.00;;
21392;SDS011;10857;52.228;21.026;2022-09-23T16:08:00;5.03;;;2.10;;
21392;SDS011;10857;52.228;21.026;2022-09-23T16:10:34;4.60;;;1.95;;
21392;SDS011;10857;52.228;21.026;2022-09-23T16:13:02;4.63;;;1.90;;
21392;SDS011;10857;52.228;21.026;2022-09-23T16:15:31;6.05;;;2.20;;
21392;SDS011;10857;52.228;21.026;2022-09-23T16:17:59;3.55;;;2.25;;
21392;SDS011;10857;52.228;21.026;2022-09-23T16:20:27;3.00;;;1.90;;
21392;SDS011;10857;52.228;21.026;2022-09-23T16:22:56;4.97;;;2.40;;
21392;SDS011;10857;52.228;21.026;2022-09-23T16:25:31;2.67;;;2.05;;
21392;SDS011;10857;52.228;21.026;2022-09-23T16:28:01;6.93;;;2.17;;
21392;SDS011;10857;52.228;21.026;2022-09-23T16:30:30;3.58;;;2.15;;
21392;SDS011;10857;52.228;21.026;2022-09-23T16:32:58;4.03;;;2.20;;
21392;SDS011;10857;52.228;21.026;2022-09-23T16:35:26;5.20;;;2.55;;
21392;SDS011;10857;52.228;21.026;2022-09-23T16:37:55;4.57;;;2.50;;
21392;SDS011;10857;52.228;21.026;2022-09-23T16:40:22;4.25;;;2.30;;
21392;SDS011;10857;52.228;21.026;2022-09-23T16:42:51;5.40;;;2.22;;
21392;SDS011;10857;52.228;21.026;2022-09-23T16:45:21;5.13;;;2.28;;
21392;SDS011;10857;52.228;21.026;2022-09-23T16:47:49;3.95;;;2.50;;
21392;SDS011;10857;52.228;21.026;2022-09-23T16:50:18;3.33;;;2.50;;
21392;SDS011;10857;52.228;21.026;2022-09-23T16:52:49;6.57;;;2.63;;
21392;SDS011;10857;52.228;21.026;2022-09-23T16:55:17;3.85;;;2.60;;
21392;SDS011;10857;52.228;21.026;2022-09-23T16:57:44;4.10;;;2.65;;
21392;SDS011;10857;52.228;21.026;2022-09-23T17:00:12;3.78;;;2.50;;
21392;SDS011;10857;52.228;21.026;2022-09-23T17:02:59;5.65;;;2.70;;
21392;SDS011;10857;52.228;21.026;2022-09-23T17:05:46;4.28;;;2.70;;
21392;SDS011;10857;52.228;21.026;2022-09-23T17:08:14;4.38;;;2.53;;
21392;SDS011;10857;52.228;21.026;2022-09-23T17:10:44;5.03;;;3.00;;